Time;durP1;ratioP1;P1;durP2;ratioP2;P2;SDS_P1;SDS_P2;PMS_P1;PMS_P2;Temp;Humidity;BMP_temperature;BMP_pressure;BME280_temperature;BME280_humidity;BME280_pressure;Samples;Min_cycle;Max_cycle;Signal;HPM_P1;HPM_P2
2023/10/06 00:00:50;;;;;;;9.37;3.90;;;;;;;;;;5014347;28;20178;-82
2023/10/06 00:03:58;;;;;;;7.57;4.03;;;;;;;;;;5061237;28;20185;-83
2023/10/06 00:07:07;;;;;;;9.83;3.93;;;;;;;;;;5014919;28;20190;-82
2023/10/06 00:10:18;;;;;;;10.80;4.30;;;;;;;;;;5049735;28;20210;-82
2023/10/06 00:13:29;;;;;;;9.07;4.33;;;;;;;;;;5061429;28;20177;-83
2023/10/06 00:16:40;;;;;;;9.17;4.23;;;;;;;;;;5061006;28;20638;-83
2023/10/06 00:19:46;;;;;;;8.93;3.97;;;;;;;;;;5061312;28;20177;-82
2023/10/06 00:22:54;;;;;;;8.63;4.30;;;;;;;;;;5061667;28;20622;-83
2023/10/06 00:25:59;;;;;;;8.93;4.20;;;;;;;;;;5014821;28;20181;-83
2023/10/06 00:29:23;;;;;;;9.60;4.03;;;;;;;;;;5060805;28;20229;-83
2023/10/06 00:32:27;;;;;;;8.53;4.33;;;;;;;;;;5061017;28;20178;-83
2023/10/06 00:35:32;;;;;;;8.10;4.00;;;;;;;;;;5014220;28;20186;-82
2023/10/06 00:38:36;;;;;;;9.03;4.00;;;;;;;;;;5014015;28;20225;-82
2023/10/06 00:41:43;;;;;;;9.20;4.23;;;;;;;;;;5014538;28;20182;-84
2023/10/06 00:44:48;;;;;;;10.13;3.67;;;;;;;;;;5061486;28;20182;-83
2023/10/06 00:47:53;;;;;;;9.70;4.33;;;;;;;;;;4990880;28;20213;-82
2023/10/06 00:51:01;;;;;;;8.37;4.07;;;;;;;;;;5001509;28;20205;-83
2023/10/06 00:54:05;;;;;;;10.03;4.37;;;;;;;;;;5061135;28;20186;-84
2023/10/06 00:57:18;;;;;;;9.93;3.83;;;;;;;;;;5013663;28;20221;-83
2023/10/06 01:00:24;;;;;;;12.00;4.23;;;;;;;;;;5060890;28;20178;-83
2023/10/06 01:03:29;;;;;;;10.60;4.00;;;;;;;;;;5014395;28;20178;-85
2023/10/06 01:06:37;;;;;;;12.37;4.23;;;;;;;;;;5058911;28;20177;-84
2023/10/06 01:10:06;;;;;;;8.90;3.87;;;;;;;;;;5012917;28;20185;-83
2023/10/06 01:13:14;;;;;;;8.70;4.30;;;;;;;;;;5000704;28;20181;-83
2023/10/06 01:16:22;;;;;;;9.87;4.53;;;;;;;;;;5012593;28;20186;-83
2023/10/06 01:19:26;;;;;;;8.60;3.60;;;;;;;;;;5059870;28;20621;-82
2023/10/06 01:22:41;;;;;;;9.57;3.90;;;;;;;;;;5000720;28;20181;-83
2023/10/06 01:25:46;;;;;;;7.90;3.87;;;;;;;;;;5059422;28;20178;-83
2023/10/06 01:28:51;;;;;;;7.60;3.50;;;;;;;;;;4988998;28;20225;-82
2023/10/06 01:31:55;;;;;;;12.53;3.70;;;;;;;;;;5059735;28;20213;-83
2023/10/06 01:35:01;;;;;;;6.80;3.80;;;;;;;;;;5012630;28;20186;-82
2023/10/06 01:38:07;;;;;;;9.83;4.00;;;;;;;;;;5012982;28;20220;-82
2023/10/06 01:41:11;;;;;;;10.43;3.90;;;;;;;;;;5048087;28;20181;-82
2023/10/06 01:44:17;;;;;;;8.53;3.83;;;;;;;;;;5013315;28;20186;-83
2023/10/06 01:47:21;;;;;;;9.23;3.93;;;;;;;;;;5061566;28;20221;-82
2023/10/06 01:50:28;;;;;;;9.60;4.13;;;;;;;;;;5062703;28;20174;-83
2023/10/06 01:53:32;;;;;;;7.80;4.47;;;;;;;;;;5063051;28;20190;-83
2023/10/06 01:56:37;;;;;;;8.37;4.20;;;;;;;;;;5062663;28;20662;-83
2023/10/06 01:59:42;;;;;;;7.87;4.13;;;;;;;;;;5063303;28;20625;-82
2023/10/06 02:02:50;;;;;;;8.77;4.20;;;;;;;;;;5063093;28;20178;-83
2023/10/06 02:05:54;;;;;;;6.57;4.13;;;;;;;;;;5015269;28;20190;-83
2023/10/06 02:08:59;;;;;;;8.73;4.37;;;;;;;;;;5062367;28;20231;-83
2023/10/06 02:12:04;;;;;;;7.67;3.67;;;;;;;;;;5062815;28;20550;-82
2023/10/06 02:15:11;;;;;;;7.50;3.83;;;;;;;;;;5062479;28;20182;-83
2023/10/06 02:18:16;;;;;;;5.70;3.63;;;;;;;;;;5062220;28;20221;-83
2023/10/06 02:21:24;;;;;;;7.60;3.70;;;;;;;;;;5062401;28;20181;-83
2023/10/06 02:24:28;;;;;;;10.77;3.93;;;;;;;;;;5062998;28;20182;-83
2023/10/06 02:27:43;;;;;;;8.00;4.13;;;;;;;;;;5015299;28;20221;-83
2023/10/06 02:30:51;;;;;;;8.57;4.47;;;;;;;;;;5062834;28;20662;-84
2023/10/06 02:33:56;;;;;;;8.30;4.00;;;;;;;;;;5062716;28;20634;-82
2023/10/06 02:37:00;;;;;;;8.10;3.97;;;;;;;;;;5062530;28;20185;-83
2023/10/06 02:40:11;;;;;;;7.97;4.20;;;;;;;;;;5062302;28;20181;-82
2023/10/06 02:43:20;;;;;;;7.67;3.97;;;;;;;;;;5015588;28;20630;-83
2023/10/06 02:46:25;;;;;;;9.67;4.20;;;;;;;;;;5015114;28;20530;-83
2023/10/06 02:49:32;;;;;;;8.80;4.00;;;;;;;;;;5015265;28;20519;-83
2023/10/06 02:52:42;;;;;;;9.73;4.43;;;;;;;;;;5015092;28;20205;-83
2023/10/06 02:55:49;;;;;;;6.93;4.03;;;;;;;;;;5050329;28;20182;-83
2023/10/06 02:58:53;;;;;;;9.77;4.13;;;;;;;;;;5060979;28;20221;-83
2023/10/06 03:02:00;;;;;;;8.60;4.23;;;;;;;;;;5015448;28;20178;-82
2023/10/06 03:05:12;;;;;;;9.30;4.30;;;;;;;;;;5062314;28;20177;-84
2023/10/06 03:08:20;;;;;;;7.40;4.13;;;;;;;;;;5061773;28;20213;-82
2023/10/06 03:11:25;;;;;;;9.87;4.27;;;;;;;;;;5050949;28;20205;-83
2023/10/06 03:14:37;;;;;;;9.63;3.80;;;;;;;;;;5050427;28;20182;-84
2023/10/06 03:17:44;;;;;;;11.30;4.63;;;;;;;;;;5061770;28;20209;-83
2023/10/06 03:20:49;;;;;;;6.90;3.83;;;;;;;;;;5061692;28;20186;-83
2023/10/06 03:23:58;;;;;;;8.50;3.80;;;;;;;;;;5061729;28;20185;-83
2023/10/06 03:27:07;;;;;;;8.50;4.30;;;;;;;;;;5050234;28;20194;-82
2023/10/06 03:30:18;;;;;;;7.53;3.53;;;;;;;;;;5015125;28;20178;-82
2023/10/06 03:33:23;;;;;;;7.87;3.50;;;;;;;;;;5050447;28;20182;-84
2023/10/06 03:36:38;;;;;;;6.17;3.47;;;;;;;;;;5050457;28;20342;-84
2023/10/06 03:39:50;;;;;;;6.07;3.90;;;;;;;;;;5062061;28;20177;-82
2023/10/06 03:42:56;;;;;;;9.87;3.77;;;;;;;;;;5014538;28;20177;-83
2023/10/06 03:46:00;;;;;;;9.20;4.00;;;;;;;;;;5049787;28;20541;-83
2023/10/06 03:49:05;;;;;;;8.40;4.23;;;;;;;;;;5050062;28;20224;-83
2023/10/06 03:52:09;;;;;;;6.57;3.77;;;;;;;;;;5049908;28;20205;-82
2023/10/06 03:55:13;;;;;;;9.03;3.50;;;;;;;;;;5061281;28;20530;-83
2023/10/06 03:58:18;;;;;;;8.87;4.43;;;;;;;;;;5049985;28;20217;-83
2023/10/06 04:01:31;;;;;;;9.80;4.43;;;;;;;;;;5014909;28;20173;-83
2023/10/06 04:04:39;;;;;;;8.67;4.03;;;;;;;;;;5060933;28;20178;-83
2023/10/06 04:07:45;;;;;;;8.83;4.13;;;;;;;;;;5061049;28;20217;-84
2023/10/06 04:10:57;;;;;;;10.43;4.60;;;;;;;;;;5060699;28;20190;-83
2023/10/06 04:14:01;;;;;;;9.37;4.23;;;;;;;;;;4991163;28;20178;-84
2023/10/06 04:17:05;;;;;;;8.43;4.23;;;;;;;;;;5014266;28;20696;-82
2023/10/06 04:20:13;;;;;;;8.63;4.23;;;;;;;;;;5014539;28;20642;-84
2023/10/06 04:23:18;;;;;;;8.07;3.47;;;;;;;;;;5013886;28;20533;-82
2023/10/06 04:26:23;;;;;;;6.77;3.97;;;;;;;;;;5060682;28;20186;-83
2023/10/06 04:29:27;;;;;;;10.53;4.60;;;;;;;;;;4990507;28;20205;-84
2023/10/06 04:32:31;;;;;;;6.80;3.80;;;;;;;;;;5049829;28;20206;-82
2023/10/06 04:35:39;;;;;;;9.67;4.10;;;;;;;;;;5013820;28;20181;-83
2023/10/06 04:38:43;;;;;;;9.10;4.30;;;;;;;;;;5014020;28;20582;-83
2023/10/06 04:41:47;;;;;;;7.53;4.40;;;;;;;;;;4990958;28;20628;-83
2023/10/06 04:44:54;;;;;;;9.30;4.10;;;;;;;;;;5059723;28;20185;-83
2023/10/06 04:48:00;;;;;;;6.70;4.23;;;;;;;;;;5013349;28;20827;-83
2023/10/06 04:51:09;;;;;;;8.67;3.90;;;;;;;;;;5013655;28;20187;-83
2023/10/06 04:54:13;;;;;;;8.93;3.93;;;;;;;;;;5060480;28;20178;-82
2023/10/06 04:57:17;;;;;;;8.90;4.97;;;;;;;;;;5060287;28;20239;-82
2023/10/06 05:00:22;;;;;;;7.93;4.40;;;;;;;;;;5014360;28;20181;-83
2023/10/06 05:03:27;;;;;;;9.27;4.37;;;;;;;;;;5060640;28;20569;-82
2023/10/06 05:06:32;;;;;;;10.17;4.90;;;;;;;;;;5014118;28;20186;-83
2023/10/06 05:09:39;;;;;;;12.57;4.43;;;;;;;;;;5014028;28;20181;-84
2023/10/06 05:12:43;;;;;;;9.93;4.60;;;;;;;;;;5059910;28;20213;-83
2023/10/06 05:15:48;;;;;;;13.53;4.90;;;;;;;;;;5013404;28;20182;-83
2023/10/06 05:18:54;;;;;;;14.37;4.00;;;;;;;;;;5013609;28;20221;-83
2023/10/06 05:21:59;;;;;;;9.33;3.93;;;;;;;;;;5060362;28;20182;-83
2023/10/06 05:25:04;;;;;;;11.47;4.90;;;;;;;;;;5013368;28;20182;-82
2023/10/06 05:28:10;;;;;;;19.83;5.60;;;;;;;;;;5059848;28;20545;-83
2023/10/06 05:31:16;;;;;;;13.90;4.53;;;;;;;;;;5049693;28;20629;-82
2023/10/06 05:34:29;;;;;;;13.30;5.57;;;;;;;;;;5058516;28;20182;-83
2023/10/06 05:38:00;;;;;;;9.47;5.57;;;;;;;;;;5060015;28;20217;-83
2023/10/06 05:41:12;;;;;;;10.73;4.93;;;;;;;;;;5046382;28;20182;-82
2023/10/06 05:44:18;;;;;;;12.77;6.20;;;;;;;;;;5048702;28;20653;-81
2023/10/06 05:47:23;;;;;;;18.93;6.30;;;;;;;;;;5025512;28;20709;-83
2023/10/06 05:50:35;;;;;;;9.73;5.30;;;;;;;;;;5036943;28;20182;-83
2023/10/06 05:53:41;;;;;;;11.60;5.10;;;;;;;;;;5047997;28;20694;-82
2023/10/06 05:56:47;;;;;;;11.97;4.77;;;;;;;;;;4978541;28;20189;-82
2023/10/06 05:59:52;;;;;;;10.17;4.93;;;;;;;;;;5036784;28;20182;-81
2023/10/06 06:03:09;;;;;;;12.03;4.63;;;;;;;;;;5048266;28;20531;-83
2023/10/06 06:06:15;;;;;;;10.43;5.17;;;;;;;;;;5037709;28;20638;-84
2023/10/06 06:09:21;;;;;;;11.77;5.20;;;;;;;;;;5060305;28;20182;-85
2023/10/06 06:12:25;;;;;;;9.27;5.00;;;;;;;;;;5060581;28;20213;-84
2023/10/06 06:15:31;;;;;;;11.40;5.27;;;;;;;;;;5013600;28;20181;-84
2023/10/06 06:18:42;;;;;;;9.73;5.40;;;;;;;;;;5013915;28;20559;-84
2023/10/06 06:21:46;;;;;;;9.03;5.33;;;;;;;;;;5059911;28;20178;-83
2023/10/06 06:25:00;;;;;;;21.80;9.97;;;;;;;;;;4980731;28;20174;-82
2023/10/06 06:28:08;;;;;;;21.30;12.17;;;;;;;;;;5050188;28;20593;-82
2023/10/06 06:31:18;;;;;;;22.53;14.07;;;;;;;;;;4989980;28;20667;-82
2023/10/06 06:34:23;;;;;;;23.13;12.73;;;;;;;;;;4992480;28;20178;-82
2023/10/06 06:37:28;;;;;;;17.63;11.63;;;;;;;;;;5040467;28;20221;-83
2023/10/06 06:40:37;;;;;;;22.10;13.13;;;;;;;;;;4983475;28;20181;-82
2023/10/06 06:43:45;;;;;;;25.00;14.23;;;;;;;;;;4992818;28;20178;-83
2023/10/06 06:46:50;;;;;;;22.40;13.07;;;;;;;;;;5039616;28;20181;-84
2023/10/06 06:50:21;;;;;;;22.83;13.43;;;;;;;;;;5049429;28;20547;-82
2023/10/06 06:53:34;;;;;;;22.80;12.73;;;;;;;;;;5061120;28;20209;-83
2023/10/06 06:56:40;;;;;;;23.47;12.07;;;;;;;;;;5051312;28;20531;-82
2023/10/06 06:59:45;;;;;;;19.37;11.13;;;;;;;;;;5050619;28;20519;-82
2023/10/06 07:02:56;;;;;;;16.93;10.03;;;;;;;;;;5051120;28;20185;-83
2023/10/06 07:06:00;;;;;;;18.20;9.70;;;;;;;;;;5063352;28;20182;-85
2023/10/06 07:09:17;;;;;;;17.40;9.63;;;;;;;;;;5051763;28;20225;-84
2023/10/06 07:13:00;;;;;;;16.27;8.53;;;;;;;;;;5043648;28;20206;-84
2023/10/06 07:16:09;;;;;;;18.60;8.23;;;;;;;;;;5040497;28;20614;-84
2023/10/06 07:23:08;;;;;;;13.23;7.00;;;;;;;;;;5061191;28;20174;-86
2023/10/06 07:26:15;;;;;;;10.83;6.30;;;;;;;;;;5003644;28;20177;-82
2023/10/06 07:29:22;;;;;;;12.13;6.43;;;;;;;;;;5053765;28;20217;-83
2023/10/06 07:32:26;;;;;;;19.50;8.10;;;;;;;;;;4980268;28;20213;-83
2023/10/06 07:35:43;;;;;;;13.97;6.77;;;;;;;;;;5048987;28;20194;-83
2023/10/06 07:38:52;;;;;;;13.83;6.47;;;;;;;;;;5037958;28;20210;-83
2023/10/06 07:41:56;;;;;;;13.17;7.37;;;;;;;;;;5026069;28;20529;-82
2023/10/06 07:45:05;;;;;;;13.43;7.77;;;;;;;;;;4978989;28;20181;-83
2023/10/06 07:48:46;;;;;;;12.13;6.60;;;;;;;;;;4980114;28;20555;-83
2023/10/06 07:51:51;;;;;;;12.73;8.13;;;;;;;;;;5014076;28;20615;-84
2023/10/06 07:54:56;;;;;;;17.63;9.50;;;;;;;;;;4979134;28;20169;-85
2023/10/06 07:58:27;;;;;;;16.83;9.07;;;;;;;;;;5060322;28;20217;-82
2023/10/06 08:01:38;;;;;;;20.13;8.07;;;;;;;;;;5002707;28;20182;-83
2023/10/06 08:04:45;;;;;;;25.27;8.33;;;;;;;;;;5026227;28;20185;-83
2023/10/06 08:07:57;;;;;;;12.30;7.80;;;;;;;;;;5037015;28;20233;-83
2023/10/06 08:11:05;;;;;;;15.73;6.33;;;;;;;;;;5038141;28;20182;-82
2023/10/06 08:14:15;;;;;;;14.20;5.70;;;;;;;;;;5048527;28;20210;-83
2023/10/06 08:17:27;;;;;;;18.27;6.70;;;;;;;;;;5048936;28;20221;-83
2023/10/06 08:20:32;;;;;;;12.63;5.67;;;;;;;;;;4979069;28;20185;-82
2023/10/06 08:23:36;;;;;;;12.70;5.47;;;;;;;;;;5048437;28;20178;-82
2023/10/06 08:26:42;;;;;;;18.90;6.60;;;;;;;;;;5060386;28;20527;-81
2023/10/06 08:33:27;;;;;;;10.87;5.27;;;;;;;;;;5047829;28;20206;-82
2023/10/06 08:36:41;;;;;;;13.07;5.03;;;;;;;;;;5049550;28;20190;-82
2023/10/06 08:39:48;;;;;;;15.20;5.03;;;;;;;;;;5049542;28;20641;-82
2023/10/06 08:43:07;;;;;;;15.20;5.13;;;;;;;;;;5048129;28;20169;-81
2023/10/06 08:46:33;;;;;;;13.80;4.70;;;;;;;;;;4991414;28;20178;-81
2023/10/06 08:50:02;;;;;;;15.27;4.90;;;;;;;;;;4980454;28;20181;-82
2023/10/06 08:53:09;;;;;;;16.67;4.87;;;;;;;;;;5048353;28;20205;-82
2023/10/06 08:56:19;;;;;;;9.47;3.90;;;;;;;;;;5046907;28;20186;-82
2023/10/06 08:59:33;;;;;;;11.33;4.60;;;;;;;;;;5059686;28;20173;-82
2023/10/06 09:03:20;;;;;;;9.63;4.20;;;;;;;;;;5059654;28;20182;-82
2023/10/06 09:06:25;;;;;;;19.87;5.23;;;;;;;;;;5059043;28;20178;-81
2023/10/06 09:09:36;;;;;;;10.77;4.73;;;;;;;;;;5048040;28;20178;-83
2023/10/06 09:13:05;;;;;;;14.83;5.30;;;;;;;;;;5037621;28;20214;-82
2023/10/06 09:17:01;;;;;;;9.73;5.03;;;;;;;;;;4980463;28;20185;-82
2023/10/06 09:20:07;;;;;;;10.43;5.00;;;;;;;;;;5036780;28;20178;-82
2023/10/06 09:23:32;;;;;;;8.27;4.30;;;;;;;;;;5012740;28;20183;-86
2023/10/06 09:26:36;;;;;;;10.57;4.53;;;;;;;;;;4989661;28;20191;-82
2023/10/06 09:29:41;;;;;;;12.00;5.13;;;;;;;;;;4978021;28;20208;-81
2023/10/06 09:32:45;;;;;;;14.73;5.50;;;;;;;;;;5011955;28;20278;-82
2023/10/06 09:36:03;;;;;;;11.47;4.90;;;;;;;;;;5058680;28;20189;-80
2023/10/06 09:39:13;;;;;;;8.90;4.40;;;;;;;;;;5059087;28;20219;-83
2023/10/06 09:42:18;;;;;;;8.90;4.30;;;;;;;;;;5012977;28;20179;-81
2023/10/06 09:45:24;;;;;;;12.90;4.70;;;;;;;;;;5047562;28;20179;-82
2023/10/06 09:48:38;;;;;;;12.80;4.70;;;;;;;;;;5048368;28;20213;-83
2023/10/06 09:51:45;;;;;;;11.40;5.03;;;;;;;;;;5011816;28;20187;-82
2023/10/06 09:54:54;;;;;;;14.68;4.60;;;;;;;;;;5035483;28;20220;-82
2023/10/06 09:58:05;;;;;;;12.60;4.70;;;;;;;;;;5035025;28;20227;-82
2023/10/06 10:01:35;;;;;;;11.60;4.60;;;;;;;;;;5035757;28;20185;-82
2023/10/06 10:04:40;;;;;;;10.03;4.77;;;;;;;;;;5024717;28;20181;-82
2023/10/06 10:08:00;;;;;;;10.43;4.78;;;;;;;;;;5045331;28;20213;-83
2023/10/06 10:11:13;;;;;;;11.90;4.93;;;;;;;;;;5039621;28;20184;-83
2023/10/06 10:14:43;;;;;;;12.13;5.28;;;;;;;;;;5040432;28;20208;-82
2023/10/06 10:18:09;;;;;;;17.63;5.13;;;;;;;;;;5040412;28;20213;-83
2023/10/06 10:21:15;;;;;;;11.07;5.15;;;;;;;;;;5039663;28;20182;-83
2023/10/06 10:24:21;;;;;;;9.10;4.70;;;;;;;;;;5040310;28;20179;-82
2023/10/06 10:27:25;;;;;;;9.98;4.63;;;;;;;;;;5039457;28;20224;-83
2023/10/06 10:30:57;;;;;;;9.55;4.57;;;;;;;;;;5051161;28;20187;-83
2023/10/06 10:34:02;;;;;;;8.48;4.03;;;;;;;;;;5050852;28;20208;-83
2023/10/06 10:37:06;;;;;;;9.35;4.55;;;;;;;;;;4991845;28;20560;-83
2023/10/06 10:40:14;;;;;;;13.10;4.85;;;;;;;;;;5014881;28;20625;-83
2023/10/06 10:43:20;;;;;;;13.13;4.32;;;;;;;;;;5004000;28;20175;-83
2023/10/06 10:46:40;;;;;;;9.82;4.30;;;;;;;;;;5062199;28;20183;-82
2023/10/06 10:49:46;;;;;;;10.68;4.90;;;;;;;;;;5050389;28;20180;-83
2023/10/06 10:52:53;;;;;;;13.60;4.53;;;;;;;;;;5003237;28;20526;-82
2023/10/06 10:55:58;;;;;;;9.00;4.30;;;;;;;;;;5050363;28;20192;-83
2023/10/06 10:59:03;;;;;;;13.10;4.72;;;;;;;;;;5061309;28;20226;-82
2023/10/06 11:02:08;;;;;;;15.00;4.93;;;;;;;;;;5060924;28;20187;-81
2023/10/06 11:05:13;;;;;;;12.18;4.93;;;;;;;;;;5014150;28;20528;-82
2023/10/06 11:08:17;;;;;;;10.18;5.20;;;;;;;;;;5060716;28;20216;-82
2023/10/06 11:11:25;;;;;;;8.50;4.63;;;;;;;;;;5049186;28;20186;-82
2023/10/06 11:14:30;;;;;;;13.47;5.53;;;;;;;;;;5014630;28;20212;-83
2023/10/06 11:17:35;;;;;;;11.33;5.50;;;;;;;;;;4991988;28;20222;-83
2023/10/06 11:20:40;;;;;;;9.43;4.57;;;;;;;;;;5002470;28;20183;-83
2023/10/06 11:23:44;;;;;;;9.63;5.47;;;;;;;;;;4980451;28;20182;-82
2023/10/06 11:26:48;;;;;;;11.13;5.20;;;;;;;;;;5061364;28;20187;-83
2023/10/06 11:29:54;;;;;;;9.50;4.90;;;;;;;;;;4979811;28;20671;-82
2023/10/06 11:33:04;;;;;;;12.13;5.03;;;;;;;;;;5060926;28;20188;-82
2023/10/06 11:36:08;;;;;;;10.93;4.90;;;;;;;;;;5060827;28;20193;-83
2023/10/06 11:39:12;;;;;;;10.43;5.53;;;;;;;;;;5038065;28;20186;-82
2023/10/06 11:42:26;;;;;;;12.63;5.63;;;;;;;;;;5061140;28;20181;-83
2023/10/06 11:45:32;;;;;;;9.93;4.80;;;;;;;;;;5049915;28;20171;-83
2023/10/06 11:48:35;;;;;;;9.50;5.30;;;;;;;;;;5014174;28;20218;-83
2023/10/06 11:51:40;;;;;;;12.40;5.23;;;;;;;;;;5014622;28;20183;-83
2023/10/06 11:54:44;;;;;;;13.07;5.63;;;;;;;;;;5061200;28;20215;-83
2023/10/06 11:57:51;;;;;;;11.37;5.30;;;;;;;;;;5049574;28;20214;-83
2023/10/06 12:00:55;;;;;;;11.57;4.40;;;;;;;;;;5049098;28;20183;-83
2023/10/06 12:04:00;;;;;;;11.43;4.90;;;;;;;;;;5013797;28;20187;-82
2023/10/06 12:07:04;;;;;;;8.63;4.60;;;;;;;;;;5013126;28;20192;-82
2023/10/06 12:10:09;;;;;;;11.40;4.73;;;;;;;;;;5060093;28;20523;-81
2023/10/06 12:13:13;;;;;;;9.87;4.50;;;;;;;;;;5012745;28;20184;-82
2023/10/06 12:16:18;;;;;;;12.77;4.70;;;;;;;;;;5047906;28;20179;-83
2023/10/06 12:19:25;;;;;;;9.43;4.53;;;;;;;;;;5059767;28;20181;-82
2023/10/06 12:22:30;;;;;;;8.53;5.27;;;;;;;;;;5059653;28;20636;-81
2023/10/06 12:25:36;;;;;;;10.80;4.27;;;;;;;;;;5012989;28;20179;-82
2023/10/06 12:28:43;;;;;;;8.43;4.37;;;;;;;;;;5047563;28;20225;-82
2023/10/06 12:31:48;;;;;;;9.60;4.30;;;;;;;;;;5000794;28;20181;-82
2023/10/06 12:34:52;;;;;;;8.93;4.17;;;;;;;;;;5001117;28;20211;-82
2023/10/06 12:37:56;;;;;;;8.33;4.80;;;;;;;;;;5059641;28;20218;-82
2023/10/06 12:41:00;;;;;;;7.90;4.10;;;;;;;;;;5059376;28;20186;-83
2023/10/06 12:44:05;;;;;;;8.53;4.13;;;;;;;;;;5047908;28;20535;-82
2023/10/06 12:47:11;;;;;;;6.27;3.90;;;;;;;;;;5047739;28;20227;-82
2023/10/06 12:50:17;;;;;;;6.20;3.50;;;;;;;;;;5059559;28;20183;-82
2023/10/06 12:53:23;;;;;;;9.37;4.30;;;;;;;;;;5059407;28;20178;-82
2023/10/06 12:56:28;;;;;;;15.50;5.20;;;;;;;;;;5012475;28;20179;-82
2023/10/06 12:59:32;;;;;;;9.70;4.17;;;;;;;;;;5059136;28;20183;-83
2023/10/06 13:02:37;;;;;;;7.33;3.80;;;;;;;;;;5047868;28;20183;-83
2023/10/06 13:05:43;;;;;;;7.47;3.63;;;;;;;;;;5012449;28;20527;-82
2023/10/06 13:08:49;;;;;;;12.07;4.67;;;;;;;;;;5047375;28;20216;-82
2023/10/06 13:11:53;;;;;;;15.95;4.07;;;;;;;;;;5000082;28;20633;-82
2023/10/06 13:14:59;;;;;;;15.63;4.50;;;;;;;;;;5047927;28;20205;-82
2023/10/06 13:18:07;;;;;;;11.17;3.93;;;;;;;;;;5058930;28;20216;-83
2023/10/06 13:21:12;;;;;;;10.27;4.25;;;;;;;;;;5011881;28;20180;-83
2023/10/06 13:24:16;;;;;;;12.65;3.80;;;;;;;;;;5058685;28;20185;-81
2023/10/06 13:27:23;;;;;;;31.90;5.15;;;;;;;;;;5038851;28;20739;-83
2023/10/06 13:30:32;;;;;;;11.73;4.33;;;;;;;;;;5061428;28;20208;-84
2023/10/06 13:33:37;;;;;;;14.57;4.23;;;;;;;;;;5060587;28;20180;-84
2023/10/06 13:36:42;;;;;;;8.13;4.17;;;;;;;;;;5013935;28;20175;-84
2023/10/06 13:39:47;;;;;;;7.90;4.50;;;;;;;;;;5014087;28;20638;-84
2023/10/06 13:42:52;;;;;;;6.60;3.63;;;;;;;;;;5063558;28;20179;-84
2023/10/06 13:45:57;;;;;;;8.77;3.73;;;;;;;;;;5065570;28;20178;-85
2023/10/06 13:49:04;;;;;;;11.00;4.37;;;;;;;;;;5017786;28;20216;-84
2023/10/06 13:52:08;;;;;;;8.07;4.07;;;;;;;;;;5065052;28;20183;-84
2023/10/06 13:55:13;;;;;;;11.97;4.27;;;;;;;;;;5064827;28;20215;-85
2023/10/06 13:58:17;;;;;;;8.47;3.90;;;;;;;;;;5064728;28;20569;-84
2023/10/06 14:01:22;;;;;;;9.40;4.10;;;;;;;;;;4994719;28;20184;-84
2023/10/06 14:04:27;;;;;;;10.63;3.77;;;;;;;;;;5053076;28;20176;-83
2023/10/06 14:07:31;;;;;;;7.17;3.57;;;;;;;;;;5053054;28;20223;-84
2023/10/06 14:10:38;;;;;;;7.87;3.77;;;;;;;;;;5053493;28;20191;-84
2023/10/06 14:13:44;;;;;;;9.80;3.90;;;;;;;;;;5053446;28;20187;-84
2023/10/06 14:16:49;;;;;;;7.03;3.97;;;;;;;;;;5053538;28;20181;-84
2023/10/06 14:19:53;;;;;;;6.57;3.50;;;;;;;;;;5005858;28;20178;-84
2023/10/06 14:22:58;;;;;;;10.63;3.87;;;;;;;;;;5005796;28;20188;-84
2023/10/06 14:26:08;;;;;;;8.93;3.57;;;;;;;;;;5053017;28;20178;-84
2023/10/06 14:29:12;;;;;;;7.00;3.67;;;;;;;;;;5042259;28;20548;-84
2023/10/06 14:32:38;;;;;;;7.77;3.77;;;;;;;;;;5017533;28;20524;-83
2023/10/06 14:45:59;;;;;;;7.27;3.13;;;;;;;;;;5052830;28;20183;-84
2023/10/06 14:49:05;;;;;;;9.50;3.20;;;;;;;;;;5064551;28;20214;-83
2023/10/06 14:52:10;;;;;;;7.10;3.17;;;;;;;;;;5040764;28;20184;-84
2023/10/06 14:55:15;;;;;;;6.57;3.37;;;;;;;;;;5064028;28;20214;-83
2023/10/06 14:58:22;;;;;;;5.87;3.23;;;;;;;;;;5052014;28;20213;-83
2023/10/06 15:01:30;;;;;;;8.97;3.23;;;;;;;;;;5052125;28;20181;-83
2023/10/06 15:04:38;;;;;;;10.60;3.70;;;;;;;;;;5041592;28;20519;-83
2023/10/06 15:07:42;;;;;;;9.20;3.87;;;;;;;;;;4993483;28;20225;-84
2023/10/06 15:10:48;;;;;;;10.17;4.33;;;;;;;;;;5051935;28;20186;-83
2023/10/06 15:13:54;;;;;;;12.20;4.37;;;;;;;;;;5040308;28;20181;-84
2023/10/06 15:16:59;;;;;;;14.40;4.17;;;;;;;;;;5063005;28;20177;-83
2023/10/06 15:20:04;;;;;;;7.63;3.37;;;;;;;;;;5063711;28;20182;-84
2023/10/06 15:23:12;;;;;;;10.00;4.67;;;;;;;;;;5063781;28;20178;-84
2023/10/06 15:26:23;;;;;;;8.27;3.67;;;;;;;;;;5004785;28;20202;-84
2023/10/06 15:29:28;;;;;;;7.10;4.00;;;;;;;;;;5063422;28;20210;-84
2023/10/06 15:32:32;;;;;;;5.87;3.17;;;;;;;;;;5063298;28;20186;-84
2023/10/06 15:35:36;;;;;;;26.23;4.13;;;;;;;;;;5003664;28;20213;-83
2023/10/06 15:38:44;;;;;;;20.40;4.60;;;;;;;;;;5063231;28;20217;-83
2023/10/06 15:41:49;;;;;;;13.47;3.70;;;;;;;;;;5016484;28;20182;-84
2023/10/06 15:44:57;;;;;;;5.03;3.50;;;;;;;;;;5016475;28;20499;-83
2023/10/06 15:48:09;;;;;;;8.20;3.40;;;;;;;;;;5062466;28;20213;-83
2023/10/06 15:51:18;;;;;;;7.03;3.67;;;;;;;;;;5015403;28;20177;-85
2023/10/06 15:54:22;;;;;;;6.53;2.93;;;;;;;;;;5062986;28;20178;-83
2023/10/06 15:57:26;;;;;;;7.17;3.20;;;;;;;;;;5062703;28;20217;-84
2023/10/06 16:00:37;;;;;;;7.97;3.93;;;;;;;;;;5016298;28;20190;-83
2023/10/06 16:03:45;;;;;;;8.73;3.27;;;;;;;;;;5015703;28;20638;-83
2023/10/06 16:06:51;;;;;;;7.60;3.43;;;;;;;;;;5049999;28;20178;-84
2023/10/06 16:09:54;;;;;;;7.00;3.43;;;;;;;;;;5015323;28;20630;-84
2023/10/06 16:12:59;;;;;;;6.00;3.40;;;;;;;;;;5003534;28;20181;-83
2023/10/06 16:16:03;;;;;;;9.27;3.30;;;;;;;;;;5016211;28;20205;-84
2023/10/06 16:19:08;;;;;;;9.07;3.97;;;;;;;;;;5062642;28;20546;-83
2023/10/06 16:22:12;;;;;;;6.47;3.50;;;;;;;;;;5050617;28;20182;-84
2023/10/06 16:25:16;;;;;;;16.27;3.43;;;;;;;;;;5050361;28;20177;-83
2023/10/06 16:28:25;;;;;;;8.13;3.60;;;;;;;;;;5050106;28;20221;-83
2023/10/06 16:31:30;;;;;;;8.10;3.67;;;;;;;;;;5050230;28;20181;-83
2023/10/06 16:34:34;;;;;;;7.27;3.40;;;;;;;;;;4981170;28;20181;-84
2023/10/06 16:37:38;;;;;;;12.30;3.63;;;;;;;;;;4981655;28;20217;-83
2023/10/06 16:40:43;;;;;;;12.13;3.53;;;;;;;;;;5039745;28;20177;-83
2023/10/06 16:43:57;;;;;;;7.80;4.00;;;;;;;;;;5050463;28;20181;-84
2023/10/06 16:47:02;;;;;;;7.57;3.33;;;;;;;;;;5061752;28;20174;-83
2023/10/06 16:50:08;;;;;;;8.97;3.93;;;;;;;;;;5014365;28;20181;-83
2023/10/06 16:53:12;;;;;;;6.63;3.50;;;;;;;;;;5039286;28;20177;-83
2023/10/06 16:56:18;;;;;;;9.87;3.50;;;;;;;;;;5014487;28;20217;-84
2023/10/06 16:59:22;;;;;;;8.53;3.60;;;;;;;;;;5050440;28;20185;-82
2023/10/06 17:02:28;;;;;;;7.60;3.53;;;;;;;;;;5051015;28;20190;-83
2023/10/06 17:05:35;;;;;;;8.43;3.87;;;;;;;;;;4980900;28;20178;-83
2023/10/06 17:08:41;;;;;;;6.13;3.30;;;;;;;;;;5050737;28;20221;-83
2023/10/06 17:11:47;;;;;;;8.63;3.27;;;;;;;;;;5060889;28;20185;-83
2023/10/06 17:14:59;;;;;;;9.10;3.47;;;;;;;;;;5064814;28;20190;-82
2023/10/06 17:18:03;;;;;;;9.10;3.63;;;;;;;;;;4990918;28;20225;-83
2023/10/06 17:21:11;;;;;;;9.33;3.73;;;;;;;;;;5061141;28;20185;-83
2023/10/06 17:24:16;;;;;;;8.93;3.57;;;;;;;;;;4979884;28;20189;-83
2023/10/06 17:27:22;;;;;;;9.00;4.00;;;;;;;;;;5037901;28;20221;-82
2023/10/06 17:30:26;;;;;;;7.43;3.70;;;;;;;;;;5049364;28;20209;-83
2023/10/06 17:33:31;;;;;;;8.37;3.83;;;;;;;;;;5049967;28;20186;-82
2023/10/06 17:36:34;;;;;;;10.83;3.77;;;;;;;;;;5061518;28;20695;-82
2023/10/06 17:39:39;;;;;;;12.93;3.97;;;;;;;;;;5049954;28;20181;-84
2023/10/06 17:42:47;;;;;;;9.10;3.77;;;;;;;;;;5049741;28;20178;-82
2023/10/06 17:45:51;;;;;;;11.23;4.50;;;;;;;;;;5013818;28;20523;-83
2023/10/06 17:48:56;;;;;;;10.67;3.70;;;;;;;;;;5049007;28;20221;-83
2023/10/06 17:52:02;;;;;;;6.67;3.80;;;;;;;;;;5037774;28;20182;-83
2023/10/06 17:55:10;;;;;;;11.33;3.97;;;;;;;;;;5037515;28;20186;-82
2023/10/06 17:58:15;;;;;;;10.60;3.80;;;;;;;;;;5049127;28;20555;-82
2023/10/06 18:01:21;;;;;;;11.33;4.03;;;;;;;;;;5049279;28;20186;-82
2023/10/06 18:04:28;;;;;;;8.63;3.97;;;;;;;;;;5038278;28;20579;-82
2023/10/06 18:07:34;;;;;;;6.63;3.80;;;;;;;;;;5049640;28;20221;-82
2023/10/06 18:10:40;;;;;;;8.03;4.10;;;;;;;;;;5037379;28;20177;-83
2023/10/06 18:13:46;;;;;;;8.17;4.10;;;;;;;;;;5037271;28;20545;-82
2023/10/06 18:16:50;;;;;;;10.33;4.10;;;;;;;;;;5037395;28;20551;-83
2023/10/06 18:19:56;;;;;;;7.80;4.13;;;;;;;;;;5060394;28;20523;-83
2023/10/06 18:23:00;;;;;;;12.13;4.37;;;;;;;;;;5049582;28;20190;-84
2023/10/06 18:26:14;;;;;;;6.73;4.20;;;;;;;;;;5060971;28;20198;-83
2023/10/06 18:29:22;;;;;;;7.37;3.73;;;;;;;;;;5062671;28;20205;-84
2023/10/06 18:32:28;;;;;;;7.20;4.00;;;;;;;;;;5063964;28;20182;-83
2023/10/06 18:35:36;;;;;;;10.70;3.73;;;;;;;;;;5063563;28;20217;-82
2023/10/06 18:38:43;;;;;;;6.93;3.97;;;;;;;;;;5063149;28;20217;-83
2023/10/06 18:41:47;;;;;;;8.67;3.90;;;;;;;;;;5016078;28;20190;-82
2023/10/06 18:44:51;;;;;;;10.20;3.90;;;;;;;;;;5052893;28;20189;-84
2023/10/06 18:47:56;;;;;;;11.43;4.20;;;;;;;;;;5005159;28;20217;-83
2023/10/06 18:51:00;;;;;;;8.50;4.13;;;;;;;;;;5052445;28;20646;-84
2023/10/06 18:54:05;;;;;;;9.03;4.27;;;;;;;;;;5016188;28;20182;-83